Time;durP1;ratioP1;P1;durP2;ratioP2;P2;SDS_P1;SDS_P2;PMS_P1;PMS_P2;Temp;Humidity;BMP_temperature;BMP_pressure;BME280_temperature;BME280_humidity;BME280_pressure;Samples;Min_cycle;Max_cycle;Signal;HPM_P1;HPM_P2
2022/10/01 00:03:34;;;;;;;5.25;2.90;;;11.40;99.90;;;;;;7340749;32;20108;-63
2022/10/01 00:07:45;;;;;;;4.25;3.08;;;11.40;99.90;;;;;;7340638;32;20099;-62
2022/10/01 00:11:47;;;;;;;6.12;3.53;;;11.60;99.90;;;;;;7348636;32;20130;-62
2022/10/01 00:15:48;;;;;;;6.35;3.03;;;11.60;99.90;;;;;;7350434;32;20096;-63
2022/10/01 00:19:50;;;;;;;6.65;3.40;;;11.60;99.90;;;;;;7346896;32;20221;-62
2022/10/01 00:23:54;;;;;;;6.40;3.95;;;11.60;99.90;;;;;;7346646;32;20472;-61
2022/10/01 00:27:56;;;;;;;10.75;4.35;;;11.50;99.90;;;;;;7343607;32;20516;-61
2022/10/01 00:31:57;;;;;;;8.57;4.68;;;11.40;99.90;;;;;;7342195;32;20123;-63
2022/10/01 00:35:59;;;;;;;6.55;4.28;;;11.30;99.90;;;;;;7353839;32;20520;-61
2022/10/01 00:40:01;;;;;;;5.75;4.72;;;11.20;99.90;;;;;;7341118;32;20145;-62
2022/10/01 00:44:33;;;;;;;7.40;4.95;;;11.00;99.90;;;;;;7348596;32;20550;-62
2022/10/01 00:48:47;;;;;;;8.02;4.80;;;11.00;99.90;;;;;;7350412;32;20186;-61
2022/10/01 00:52:58;;;;;;;9.20;5.25;;;10.90;99.90;;;;;;7356417;32;20517;-61
2022/10/01 00:57:01;;;;;;;8.13;5.32;;;10.90;99.90;;;;;;7341858;32;20175;-62
2022/10/01 01:01:03;;;;;;;7.03;5.70;;;10.80;99.90;;;;;;7346470;32;20108;-61
2022/10/01 01:05:07;;;;;;;6.93;5.37;;;10.70;99.90;;;;;;7344807;32;20286;-61
2022/10/01 01:09:09;;;;;;;11.10;6.15;;;10.70;99.90;;;;;;7346691;32;20559;-61
2022/10/01 01:13:22;;;;;;;7.68;6.30;;;10.70;99.90;;;;;;7341087;32;20516;-61
2022/10/01 01:17:32;;;;;;;8.88;6.25;;;10.60;99.90;;;;;;7345898;32;20114;-61
2022/10/01 01:21:43;;;;;;;7.57;6.30;;;10.60;99.90;;;;;;7350231;32;20217;-62
2022/10/01 01:25:50;;;;;;;7.53;6.43;;;10.50;99.90;;;;;;7352315;32;20496;-62
2022/10/01 01:30:03;;;;;;;7.82;5.85;;;10.50;99.90;;;;;;7351246;32;20106;-62
2022/10/01 01:34:11;;;;;;;8.88;6.30;;;10.50;99.90;;;;;;7354292;32;20285;-61
2022/10/01 01:38:18;;;;;;;7.60;6.50;;;10.40;99.90;;;;;;7354256;32;20096;-61
2022/10/01 01:42:30;;;;;;;7.78;6.72;;;10.40;99.90;;;;;;7343669;32;20138;-61
2022/10/01 01:46:35;;;;;;;11.70;6.68;;;10.30;99.90;;;;;;7348246;32;20112;-61
2022/10/01 01:50:49;;;;;;;9.65;6.55;;;10.30;99.90;;;;;;7345979;32;20111;-61
2022/10/01 01:54:51;;;;;;;8.75;7.30;;;10.30;99.90;;;;;;7345720;32;20176;-61
2022/10/01 01:58:52;;;;;;;10.05;7.87;;;10.30;99.90;;;;;;7348732;32;20118;-61
2022/10/01 02:02:56;;;;;;;11.60;8.07;;;10.30;99.90;;;;;;7342932;32;20178;-61
2022/10/01 02:07:02;;;;;;;9.48;7.47;;;10.30;99.90;;;;;;7340566;32;20132;-61
2022/10/01 02:11:13;;;;;;;9.18;7.20;;;10.30;99.90;;;;;;7337368;32;20146;-62
2022/10/01 02:15:35;;;;;;;7.70;6.90;;;10.30;99.90;;;;;;7339241;32;20202;-62
2022/10/01 02:19:49;;;;;;;13.62;7.57;;;10.30;99.90;;;;;;7351599;32;20119;-62
2022/10/01 02:24:07;;;;;;;8.48;7.07;;;10.30;99.90;;;;;;7347164;32;20249;-61
2022/10/01 02:28:14;;;;;;;9.00;7.37;;;10.30;99.90;;;;;;7347601;32;20355;-62
2022/10/01 02:32:17;;;;;;;11.77;7.40;;;10.30;99.90;;;;;;7347469;32;20198;-62
2022/10/01 02:36:20;;;;;;;9.02;7.30;;;10.30;99.90;;;;;;7347850;32;20198;-61
2022/10/01 02:40:25;;;;;;;7.97;6.95;;;10.30;99.90;;;;;;7359349;32;20103;-61
2022/10/01 02:44:36;;;;;;;7.80;6.95;;;10.30;99.90;;;;;;7346863;32;20103;-62
2022/10/01 02:48:38;;;;;;;8.80;7.70;;;10.30;99.90;;;;;;7338766;32;20201;-63
2022/10/01 02:53:01;;;;;;;8.45;7.00;;;10.30;99.90;;;;;;7352627;32;20099;-62
2022/10/01 03:01:23;;;;;;;9.18;7.22;;;10.20;99.90;;;;;;7346592;32;20343;-62
2022/10/01 03:05:24;;;;;;;10.88;7.62;;;10.20;99.90;;;;;;7349803;32;20191;-62
2022/10/01 03:09:26;;;;;;;11.02;7.57;;;10.30;99.90;;;;;;7350799;32;20515;-63
2022/10/01 03:13:28;;;;;;;10.00;8.73;;;10.20;99.90;;;;;;7350201;32;20107;-63
2022/10/01 03:17:29;;;;;;;10.95;8.23;;;10.20;99.90;;;;;;7336970;32;20119;-62
2022/10/01 03:21:31;;;;;;;10.77;7.32;;;10.20;99.90;;;;;;7340185;32;20115;-62
2022/10/01 03:25:33;;;;;;;9.07;7.35;;;10.30;99.90;;;;;;7344872;32;20280;-63
2022/10/01 03:29:35;;;;;;;11.55;7.53;;;10.20;99.90;;;;;;7350252;32;21831;-63
2022/10/01 03:33:36;;;;;;;10.68;7.55;;;10.20;99.90;;;;;;7346413;32;20107;-63
2022/10/01 03:37:38;;;;;;;9.52;7.43;;;10.20;99.90;;;;;;7341368;32;20107;-62
2022/10/01 03:41:40;;;;;;;8.63;7.72;;;10.20;99.90;;;;;;7346207;32;20104;-63
2022/10/01 03:45:41;;;;;;;9.10;6.80;;;10.20;99.90;;;;;;7342444;32;20122;-63
2022/10/01 03:49:43;;;;;;;8.98;7.53;;;10.20;99.90;;;;;;7347158;32;20111;-62
2022/10/01 03:53:46;;;;;;;10.30;7.62;;;10.20;99.90;;;;;;7347345;32;20165;-63
2022/10/01 03:57:49;;;;;;;7.90;7.20;;;10.20;99.90;;;;;;7353014;32;20271;-65
2022/10/01 04:01:50;;;;;;;8.45;6.60;;;10.10;99.90;;;;;;7348675;32;20125;-62
2022/10/01 04:05:52;;;;;;;6.93;6.22;;;10.20;99.90;;;;;;7349284;32;20115;-62
2022/10/01 04:09:54;;;;;;;6.97;6.05;;;10.30;99.90;;;;;;7353345;32;20464;-62
2022/10/01 04:13:56;;;;;;;7.40;6.10;;;10.30;99.90;;;;;;7347296;32;20633;-65
2022/10/01 04:17:59;;;;;;;7.43;5.50;;;10.30;99.90;;;;;;7346719;32;20732;-63
2022/10/01 04:22:00;;;;;;;6.57;5.82;;;10.30;99.90;;;;;;7359941;32;20102;-62
2022/10/01 04:26:03;;;;;;;6.20;5.25;;;10.30;99.90;;;;;;7346075;32;20863;-63
2022/10/01 04:30:07;;;;;;;6.30;4.60;;;10.30;99.90;;;;;;7347023;32;20127;-62
2022/10/01 04:34:08;;;;;;;6.35;4.60;;;10.30;99.90;;;;;;7346595;32;20229;-62
2022/10/01 04:38:15;;;;;;;5.72;4.45;;;10.30;99.90;;;;;;7349040;32;20190;-61
2022/10/01 04:42:16;;;;;;;5.82;4.35;;;10.30;99.90;;;;;;7349773;32;20547;-62
2022/10/01 04:46:18;;;;;;;4.10;3.70;;;10.30;99.90;;;;;;7356304;32;20902;-63
2022/10/01 04:50:22;;;;;;;4.45;3.10;;;10.30;99.90;;;;;;7355014;32;20146;-62
2022/10/01 04:54:24;;;;;;;4.15;3.17;;;10.40;99.90;;;;;;7351330;32;20179;-63
2022/10/01 04:58:25;;;;;;;5.40;3.30;;;10.50;99.90;;;;;;7346084;32;20220;-63
2022/10/01 05:02:28;;;;;;;4.65;3.20;;;10.40;99.90;;;;;;7352103;32;20130;-63
2022/10/01 05:06:29;;;;;;;3.85;3.35;;;10.40;99.90;;;;;;7350411;32;20168;-62
2022/10/01 05:10:31;;;;;;;3.90;3.00;;;10.40;99.90;;;;;;7356820;32;20129;-62
2022/10/01 05:14:33;;;;;;;6.75;3.03;;;10.50;99.90;;;;;;7344097;32;20111;-62
2022/10/01 05:18:35;;;;;;;4.78;2.78;;;10.60;99.90;;;;;;7339391;32;20492;-64
2022/10/01 05:22:37;;;;;;;2.17;1.83;;;10.60;99.90;;;;;;7352005;32;20103;-62
2022/10/01 05:26:38;;;;;;;4.25;2.30;;;10.60;99.90;;;;;;7348205;32;20601;-63
2022/10/01 05:30:40;;;;;;;4.37;2.17;;;10.60;99.90;;;;;;7339782;32;20149;-62
2022/10/01 05:34:41;;;;;;;1.92;1.48;;;10.60;99.90;;;;;;7346965;32;20218;-62
2022/10/01 05:38:46;;;;;;;2.35;1.30;;;10.60;99.90;;;;;;7343947;32;20134;-62
2022/10/01 05:42:48;;;;;;;1.73;0.90;;;10.70;99.90;;;;;;7344809;32;20484;-63
2022/10/01 05:46:51;;;;;;;1.75;0.90;;;10.80;99.90;;;;;;7347284;32;20123;-64
2022/10/01 05:50:53;;;;;;;0.80;0.75;;;10.90;99.90;;;;;;7348368;32;20095;-62
2022/10/01 05:54:54;;;;;;;1.10;0.80;;;10.80;99.90;;;;;;7343056;32;20123;-64
2022/10/01 05:58:57;;;;;;;2.83;0.93;;;10.90;99.90;;;;;;7346690;32;20133;-64
2022/10/01 06:03:00;;;;;;;3.12;1.00;;;10.90;99.90;;;;;;7343206;32;20688;-61
2022/10/01 06:07:02;;;;;;;2.08;0.75;;;10.90;99.90;;;;;;7341912;32;20513;-61
2022/10/01 06:11:03;;;;;;;1.33;0.50;;;11.00;99.90;;;;;;7342586;32;20118;-61
2022/10/01 06:15:06;;;;;;;0.93;0.65;;;11.00;99.90;;;;;;7343886;32;20194;-66
2022/10/01 06:19:07;;;;;;;0.90;0.40;;;11.00;99.90;;;;;;7343538;32;20504;-70
2022/10/01 06:23:11;;;;;;;2.60;0.60;;;11.00;99.90;;;;;;7337872;32;20194;-66
2022/10/01 06:27:12;;;;;;;0.88;0.50;;;10.90;99.90;;;;;;7344903;32;20168;-64
2022/10/01 06:31:14;;;;;;;1.85;0.70;;;11.00;99.90;;;;;;7346822;32;20651;-65
2022/10/01 06:35:16;;;;;;;1.33;0.40;;;11.00;99.90;;;;;;7347043;32;20566;-68
2022/10/01 06:39:17;;;;;;;1.50;0.40;;;11.10;99.90;;;;;;7342481;32;20091;-68
2022/10/01 06:43:20;;;;;;;0.62;0.35;;;11.00;99.90;;;;;;7344011;32;20182;-66
2022/10/01 06:47:22;;;;;;;3.53;0.60;;;11.10;99.90;;;;;;7348040;32;20133;-65
2022/10/01 06:52:47;;;;;;;1.87;0.77;;;11.10;99.90;;;;;;7339967;32;20123;-67
2022/10/01 06:55:45;;;;;;;1.10;0.40;;;11.10;99.90;;;;;;7343195;32;20122;-66
2022/10/01 06:59:46;;;;;;;2.75;1.00;;;11.10;99.90;;;;;;7348978;32;20669;-67
2022/10/01 07:03:52;;;;;;;1.48;1.00;;;11.20;99.90;;;;;;7351432;32;20200;-68
2022/10/01 07:07:54;;;;;;;4.53;1.10;;;11.30;99.90;;;;;;7349094;32;20132;-66
2022/10/01 07:11:56;;;;;;;1.58;0.80;;;11.30;99.90;;;;;;7346614;32;20189;-65
2022/10/01 07:15:57;;;;;;;2.40;0.90;;;11.50;99.90;;;;;;7343860;32;20532;-65
2022/10/01 07:20:00;;;;;;;1.20;0.30;;;11.60;99.90;;;;;;7335344;32;20103;-65
2022/10/01 07:24:02;;;;;;;0.40;0.30;;;11.70;99.90;;;;;;7347985;32;20096;-64
2022/10/01 07:28:05;;;;;;;1.42;0.30;;;11.70;99.90;;;;;;7345922;32;20508;-65
2022/10/01 07:32:09;;;;;;;1.30;0.40;;;11.80;99.90;;;;;;7345156;32;20112;-65
2022/10/01 07:36:12;;;;;;;3.80;0.85;;;11.90;99.90;;;;;;7340700;32;20194;-66
2022/10/01 07:40:15;;;;;;;1.95;0.75;;;12.00;99.90;;;;;;7345127;32;20122;-65
2022/10/01 07:44:18;;;;;;;1.55;0.60;;;12.00;99.90;;;;;;7343836;32;20621;-65
2022/10/01 07:48:19;;;;;;;1.37;0.60;;;12.10;99.90;;;;;;7339275;32;20100;-66
2022/10/01 07:52:21;;;;;;;2.00;0.52;;;12.10;99.90;;;;;;7350279;32;20115;-65
2022/10/01 07:56:23;;;;;;;1.02;0.45;;;12.20;99.90;;;;;;7349686;32;20107;-65
2022/10/01 08:00:26;;;;;;;2.85;0.90;;;12.20;99.90;;;;;;7341826;32;20463;-66
2022/10/01 08:08:48;;;;;;;3.50;0.90;;;12.50;99.90;;;;;;7347464;32;20702;-67
2022/10/01 08:12:50;;;;;;;3.30;1.50;;;12.70;99.90;;;;;;7342303;32;20154;-65
2022/10/01 08:16:54;;;;;;;1.55;0.77;;;12.70;99.90;;;;;;7346399;32;20474;-66
2022/10/01 08:20:59;;;;;;;2.17;0.82;;;12.80;99.90;;;;;;7347310;32;20349;-67
2022/10/01 08:25:01;;;;;;;0.80;0.70;;;12.90;99.90;;;;;;7351948;32;20448;-66
2022/10/01 08:29:03;;;;;;;2.00;1.10;;;13.00;99.90;;;;;;7344523;32;20561;-66
2022/10/01 08:33:06;;;;;;;4.10;0.80;;;13.10;99.90;;;;;;7347484;32;20117;-66
2022/10/01 08:37:07;;;;;;;2.65;0.90;;;13.10;99.90;;;;;;7353376;32;20459;-65
2022/10/01 08:41:23;;;;;;;2.53;0.70;;;13.30;99.90;;;;;;7347826;32;20122;-66
2022/10/01 08:45:31;;;;;;;1.67;0.70;;;13.30;99.90;;;;;;7344479;32;20195;-64
2022/10/01 08:49:39;;;;;;;;;;;13.50;99.90;;;;;;7349013;32;20099;-64
2022/10/01 08:53:52;;;;;;;2.10;0.90;;;13.40;99.90;;;;;;7350733;32;20021;-63
2022/10/01 08:57:58;;;;;;;3.03;0.90;;;13.40;99.90;;;;;;7355777;32;20135;-63
2022/10/01 09:02:00;;;;;;;2.90;1.08;;;13.40;99.90;;;;;;7339039;32;20107;-64
2022/10/01 09:06:13;;;;;;;3.30;0.93;;;13.40;99.90;;;;;;7339789;32;20121;-64
2022/10/01 09:11:03;;;;;;;0.90;0.75;;;13.40;99.90;;;;;;7344372;32;20559;-65
2022/10/01 09:15:23;;;;;;;2.20;0.90;;;13.40;99.90;;;;;;7294489;32;20746;-59
2022/10/01 09:19:34;;;;;;;4.18;0.80;;;13.50;99.90;;;;;;7343760;32;20112;-64
2022/10/01 09:23:48;;;;;;;2.10;0.98;;;13.50;99.90;;;;;;7342774;32;20291;-65
2022/10/01 09:27:55;;;;;;;3.95;1.27;;;13.40;99.90;;;;;;7338973;32;20432;-65
2022/10/01 09:32:00;;;;;;;4.68;1.20;;;13.40;99.90;;;;;;7340881;32;20183;-66
2022/10/01 09:36:24;;;;;;;2.35;1.48;;;13.30;99.90;;;;;;7345416;32;20188;-66
2022/10/01 09:40:54;;;;;;;3.10;1.83;;;13.20;99.90;;;;;;7348919;32;20111;-68
2022/10/01 09:44:56;;;;;;;5.50;2.70;;;13.10;99.90;;;;;;7349546;32;20095;-68
2022/10/01 09:49:35;;;;;;;4.90;2.05;;;13.20;99.90;;;;;;7346498;32;20103;-67
2022/10/01 09:53:44;;;;;;;2.87;1.48;;;13.30;99.90;;;;;;7342245;32;20202;-67
2022/10/01 09:57:55;;;;;;;5.12;1.80;;;13.40;99.90;;;;;;7344979;32;20234;-67
2022/10/01 10:02:00;;;;;;;4.90;2.45;;;13.50;99.90;;;;;;7345041;32;20947;-66
2022/10/01 10:06:05;;;;;;;3.45;1.75;;;13.70;99.90;;;;;;7345718;32;20134;-66
2022/10/01 10:10:18;;;;;;;4.40;2.17;;;13.80;99.90;;;;;;7342266;32;20207;-67
2022/10/01 10:14:39;;;;;;;5.18;1.87;;;14.00;99.90;;;;;;7342736;32;20099;-67
2022/10/01 10:18:41;;;;;;;4.43;1.50;;;14.40;99.90;;;;;;7343307;32;20507;-66
2022/10/01 10:22:43;;;;;;;4.10;1.50;;;14.50;99.90;;;;;;7339569;32;20813;-66
2022/10/01 10:26:55;;;;;;;2.40;1.00;;;14.50;99.90;;;;;;7343196;32;20129;-65
2022/10/01 10:30:57;;;;;;;2.00;1.20;;;14.60;99.90;;;;;;7339587;32;20795;-66
2022/10/01 10:35:03;;;;;;;4.10;1.87;;;14.80;99.90;;;;;;7343098;32;20107;-64
2022/10/01 10:39:15;;;;;;;5.07;1.50;;;15.00;99.90;;;;;;7343064;32;20139;-66
2022/10/01 10:43:27;;;;;;;4.82;1.50;;;15.10;99.90;;;;;;7340679;32;20206;-65
2022/10/01 10:47:31;;;;;;;5.55;1.48;;;15.20;99.90;;;;;;7353347;32;20179;-65
2022/10/01 10:51:50;;;;;;;5.25;1.70;;;15.10;99.90;;;;;;7339831;32;20103;-65
2022/10/01 10:56:03;;;;;;;8.73;2.12;;;15.00;99.90;;;;;;7331342;32;20100;-64
2022/10/01 11:00:16;;;;;;;6.43;2.20;;;15.10;99.90;;;;;;7340272;32;20107;-64
2022/10/01 11:04:26;;;;;;;9.65;3.20;;;15.10;99.90;;;;;;7342978;32;20158;-65
2022/10/01 11:08:30;;;;;;;6.15;2.42;;;15.20;99.90;;;;;;7336370;32;20122;-65
2022/10/01 11:12:55;;;;;;;11.25;2.72;;;15.30;99.90;;;;;;7348537;32;20099;-64
2022/10/01 11:17:13;;;;;;;7.10;2.70;;;15.30;99.90;;;;;;7351137;32;20250;-65
2022/10/01 11:21:18;;;;;;;8.57;3.10;;;15.40;99.90;;;;;;7337203;32;20505;-65
2022/10/01 11:25:30;;;;;;;9.25;2.45;;;15.50;99.90;;;;;;7351352;32;20104;-65
2022/10/01 11:29:52;;;;;;;8.02;3.28;;;15.60;99.90;;;;;;7348567;32;20095;-66
2022/10/01 11:34:15;;;;;;;9.88;3.03;;;15.40;99.90;;;;;;7342992;32;20153;-66
2022/10/01 11:38:41;;;;;;;10.35;3.85;;;15.30;99.90;;;;;;7344048;32;20213;-65
2022/10/01 11:42:45;;;;;;;11.70;3.92;;;15.40;99.90;;;;;;7345555;32;20108;-66
2022/10/01 11:47:02;;;;;;;8.25;3.10;;;15.70;99.90;;;;;;7343689;32;20905;-66
2022/10/01 11:51:35;;;;;;;6.28;2.53;;;16.00;99.90;;;;;;7338252;32;20118;-65
2022/10/01 12:00:08;;;;;;;8.65;3.05;;;16.30;99.90;;;;;;7340546;32;20142;-65
2022/10/01 12:04:21;;;;;;;6.28;2.12;;;16.10;99.90;;;;;;7344503;32;20426;-65
2022/10/01 12:08:33;;;;;;;9.43;2.42;;;15.90;99.90;;;;;;7334541;32;20718;-65
2022/10/01 12:12:44;;;;;;;9.50;2.80;;;15.70;99.90;;;;;;7339908;32;20127;-66
2022/10/01 12:16:55;;;;;;;8.45;2.20;;;15.70;99.90;;;;;;7338725;32;20122;-66
2022/10/01 12:21:05;;;;;;;11.90;2.60;;;15.80;99.90;;;;;;7344691;32;20095;-65
2022/10/01 12:25:12;;;;;;;11.18;2.20;;;15.80;99.90;;;;;;7338481;32;20205;-65
2022/10/01 12:29:37;;;;;;;13.13;2.92;;;15.60;99.90;;;;;;7345470;32;20096;-66
2022/10/01 12:33:46;;;;;;;3.58;1.20;;;15.20;99.90;;;;;;7351156;32;20116;-63
2022/10/01 12:37:59;;;;;;;6.70;1.80;;;14.70;99.90;;;;;;7342376;32;20629;-63
2022/10/01 12:42:14;;;;;;;7.37;1.35;;;14.30;99.90;;;;;;7347040;32;20155;-65
2022/10/01 12:46:23;;;;;;;7.18;1.42;;;14.00;99.90;;;;;;7344657;32;20111;-66
2022/10/01 12:50:53;;;;;;;9.50;2.08;;;13.70;99.90;;;;;;7349585;32;20188;-65
2022/10/01 12:55:33;;;;;;;10.13;2.30;;;13.70;99.90;;;;;;7351727;32;20142;-66
2022/10/01 13:00:06;;;;;;;9.77;2.33;;;13.90;99.90;;;;;;7318748;32;20175;-65
2022/10/01 13:04:23;;;;;;;10.57;2.92;;;14.10;99.90;;;;;;7340623;32;20258;-65
2022/10/01 13:08:43;;;;;;;13.15;3.08;;;14.40;99.90;;;;;;7345689;32;20139;-65
2022/10/01 13:13:34;;;;;;;10.10;2.42;;;14.60;99.90;;;;;;7342508;32;20120;-64
2022/10/01 13:17:48;;;;;;;11.20;2.33;;;14.70;99.90;;;;;;7338152;32;20104;-65
2022/10/01 13:21:56;;;;;;;10.77;3.03;;;14.80;99.90;;;;;;7349155;32;20119;-65
2022/10/01 13:26:11;;;;;;;12.43;2.40;;;15.20;99.90;;;;;;7343920;32;20246;-65
2022/10/01 13:30:15;;;;;;;11.43;2.65;;;15.60;99.90;;;;;;7348468;32;20134;-65
2022/10/01 13:34:34;;;;;;;13.95;3.45;;;15.80;99.90;;;;;;7355058;32;20122;-65
2022/10/01 13:38:42;;;;;;;12.02;1.65;;;16.00;99.90;;;;;;7338172;32;20133;-65
2022/10/01 13:42:46;;;;;;;10.60;1.83;;;16.00;99.90;;;;;;7352768;32;20162;-65
2022/10/01 13:46:52;;;;;;;12.65;2.08;;;15.90;99.90;;;;;;7347633;32;20225;-65
2022/10/01 13:51:07;;;;;;;7.90;2.20;;;15.70;99.90;;;;;;7340153;32;20115;-66
2022/10/01 13:55:27;;;;;;;7.32;2.00;;;15.40;99.90;;;;;;7347712;32;20218;-64
2022/10/01 13:59:35;;;;;;;7.47;1.40;;;15.20;99.90;;;;;;7342326;32;20178;-66
2022/10/01 14:03:48;;;;;;;;;;;14.90;99.90;;;;;;7345747;32;20118;-65
2022/10/01 14:07:55;;;;;;;4.70;1.10;;;14.80;99.90;;;;;;7349939;32;20391;-64
2022/10/01 14:16:24;;;;;;;4.65;1.20;;;14.90;99.90;;;;;;7353277;32;20416;-64
2022/10/01 14:20:45;;;;;;;8.23;1.30;;;14.80;99.90;;;;;;7349181;32;20103;-66
2022/10/01 14:25:32;;;;;;;12.20;1.50;;;15.20;99.90;;;;;;7356612;32;20745;-65
2022/10/01 14:29:39;;;;;;;8.85;2.28;;;15.20;99.90;;;;;;7318607;32;20921;-65
2022/10/01 14:33:51;;;;;;;;;;;15.10;99.90;;;;;;7341863;32;20130;-67
2022/10/01 14:38:02;;;;;;;10.43;2.80;;;15.10;99.90;;;;;;7351618;32;20028;-64
2022/10/01 14:42:12;;;;;;;13.35;2.67;;;15.00;99.90;;;;;;7337914;32;20192;-66
2022/10/01 14:46:18;;;;;;;14.95;2.60;;;15.00;99.90;;;;;;7336466;32;20617;-66
2022/10/01 14:50:20;;;;;;;12.90;1.85;;;15.10;99.90;;;;;;7342885;32;20103;-65
2022/10/01 14:54:23;;;;;;;16.12;2.15;;;15.40;99.90;;;;;;7341684;32;20535;-65
2022/10/01 14:58:31;;;;;;;16.37;2.78;;;15.70;99.90;;;;;;7345008;32;20103;-65
2022/10/01 15:02:33;;;;;;;9.02;1.65;;;15.70;99.90;;;;;;7339263;32;20222;-65
2022/10/01 15:06:41;;;;;;;7.53;1.80;;;15.80;99.90;;;;;;7345391;32;20099;-65
2022/10/01 15:10:51;;;;;;;10.00;1.90;;;15.70;99.90;;;;;;7346455;32;20104;-65
2022/10/01 15:14:53;;;;;;;13.00;1.92;;;15.80;99.90;;;;;;7343543;32;20112;-65
2022/10/01 15:18:57;;;;;;;9.30;2.22;;;15.80;99.90;;;;;;7351109;32;20098;-65
2022/10/01 15:22:59;;;;;;;10.68;1.42;;;15.70;99.90;;;;;;7342099;32;20145;-65
2022/10/01 15:27:03;;;;;;;9.57;1.30;;;15.70;99.90;;;;;;7344114;32;20245;-65
2022/10/01 15:31:06;;;;;;;8.07;1.40;;;15.60;99.90;;;;;;7343410;32;20210;-65
2022/10/01 15:35:11;;;;;;;11.10;1.33;;;15.50;99.90;;;;;;7339635;32;20186;-65
2022/10/01 15:39:37;;;;;;;14.68;1.75;;;15.40;99.90;;;;;;7341335;32;20230;-65
2022/10/01 15:43:40;;;;;;;6.62;1.40;;;15.50;99.90;;;;;;7347487;32;20141;-65
2022/10/01 15:47:50;;;;;;;10.68;1.77;;;15.40;99.90;;;;;;7344172;32;20760;-65
2022/10/01 15:56:22;;;;;;;10.73;1.60;;;15.40;99.90;;;;;;7348975;32;20581;-66
2022/10/01 16:00:30;;;;;;;10.60;1.48;;;15.30;99.90;;;;;;7342157;32;20245;-65
2022/10/01 16:04:32;;;;;;;7.00;1.40;;;15.30;99.90;;;;;;7347909;32;20111;-65
2022/10/01 16:08:47;;;;;;;7.80;1.75;;;15.20;99.90;;;;;;7343407;32;20180;-65
2022/10/01 16:12:49;;;;;;;11.82;1.87;;;15.10;99.90;;;;;;7342239;32;20180;-64
2022/10/01 16:17:17;;;;;;;4.30;1.30;;;15.10;99.90;;;;;;7345448;32;20108;-64
2022/10/01 16:21:19;;;;;;;9.52;2.22;;;15.10;99.90;;;;;;7348761;32;20194;-64
2022/10/01 16:25:24;;;;;;;12.32;2.35;;;15.10;99.90;;;;;;7351055;32;20175;-64
2022/10/01 16:29:26;;;;;;;9.68;1.50;;;15.10;99.90;;;;;;7348331;32;20160;-64
2022/10/01 16:33:27;;;;;;;11.23;1.90;;;15.20;99.90;;;;;;7342224;32;20123;-65
2022/10/01 16:37:29;;;;;;;9.18;1.92;;;15.20;99.90;;;;;;7358584;32;20130;-64
2022/10/01 16:41:32;;;;;;;12.07;1.40;;;15.20;99.90;;;;;;7346685;32;20104;-63
2022/10/01 16:45:37;;;;;;;5.93;1.60;;;15.10;99.90;;;;;;7342520;32;20194;-63
2022/10/01 16:49:39;;;;;;;7.57;2.08;;;14.90;99.90;;;;;;7344107;32;20523;-65
2022/10/01 16:53:44;;;;;;;12.85;2.03;;;14.80;99.90;;;;;;7340204;32;20099;-63
2022/10/01 16:57:46;;;;;;;10.98;1.92;;;14.80;99.90;;;;;;7347042;32;20104;-65
2022/10/01 17:01:53;;;;;;;14.00;3.10;;;14.60;99.90;;;;;;7344261;32;20546;-65
2022/10/01 17:05:55;;;;;;;13.07;3.10;;;14.60;99.90;;;;;;7350924;32;20726;-65
2022/10/01 17:09:57;;;;;;;17.37;2.45;;;14.40;99.90;;;;;;7346045;32;20225;-66
2022/10/01 17:14:00;;;;;;;12.55;2.10;;;14.30;99.90;;;;;;7344778;32;20233;-64
2022/10/01 17:18:02;;;;;;;10.63;1.70;;;14.20;99.90;;;;;;7344778;32;20239;-66
2022/10/01 17:22:03;;;;;;;11.27;2.00;;;14.10;99.90;;;;;;7346482;32;20597;-64
2022/10/01 17:26:07;;;;;;;12.63;2.40;;;14.10;99.90;;;;;;7342943;32;20115;-63
2022/10/01 17:30:09;;;;;;;7.70;1.40;;;14.00;99.90;;;;;;7343167;32;20198;-63
2022/10/01 17:34:11;;;;;;;13.73;1.70;;;14.00;99.90;;;;;;7350849;32;20459;-64
2022/10/01 17:38:13;;;;;;;10.40;1.90;;;13.80;99.90;;;;;;7338359;32;20126;-63
2022/10/01 17:42:16;;;;;;;15.85;2.12;;;13.80;99.90;;;;;;7350748;32;20503;-62
2022/10/01 17:46:18;;;;;;;12.60;1.70;;;13.70;99.90;;;;;;7347658;32;20210;-62
2022/10/01 17:50:20;;;;;;;6.00;1.50;;;13.50;99.90;;;;;;7344573;32;20126;-61
2022/10/01 17:54:22;;;;;;;7.95;1.80;;;13.50;99.90;;;;;;7351441;32;20488;-62
2022/10/01 17:58:24;;;;;;;14.85;1.60;;;13.40;99.90;;;;;;7347577;32;20665;-61
2022/10/01 18:02:25;;;;;;;9.32;1.52;;;13.30;99.90;;;;;;7351230;32;20111;-64
2022/10/01 18:06:45;;;;;;;9.35;2.08;;;13.20;99.90;;;;;;7342012;32;20099;-61
2022/10/01 18:10:47;;;;;;;11.95;2.28;;;13.20;99.90;;;;;;7348816;32;20142;-63
2022/10/01 18:14:49;;;;;;;7.95;2.00;;;13.10;99.90;;;;;;7347435;32;20243;-64
2022/10/01 18:18:58;;;;;;;8.75;2.40;;;13.20;99.90;;;;;;7339847;32;20153;-63
2022/10/01 18:23:20;;;;;;;7.45;1.90;;;13.10;99.90;;;;;;7343861;32;20266;-63
2022/10/01 18:27:22;;;;;;;10.73;2.47;;;13.10;99.90;;;;;;7343183;32;20114;-61
2022/10/01 18:31:44;;;;;;;9.85;2.12;;;13.10;99.90;;;;;;7340917;32;20430;-63
2022/10/01 18:35:51;;;;;;;11.95;2.50;;;13.10;99.90;;;;;;7339117;32;20210;-63
2022/10/01 18:40:09;;;;;;;8.95;2.25;;;13.00;99.90;;;;;;7341401;32;20410;-63
2022/10/01 18:44:12;;;;;;;;;;;12.90;99.90;;;;;;7340929;32;20112;-62
2022/10/01 18:48:46;;;;;;;14.73;3.45;;;12.80;99.90;;;;;;7342272;32;20144;-62
2022/10/01 18:53:07;;;;;;;17.65;5.12;;;12.80;99.90;;;;;;7345263;32;20201;-62
2022/10/01 18:57:43;;;;;;;14.75;4.65;;;12.70;99.90;;;;;;7348608;32;20417;-62
2022/10/01 19:01:54;;;;;;;15.60;5.20;;;12.50;99.90;;;;;;7337957;32;20108;-63
2022/10/01 19:06:14;;;;;;;16.12;4.47;;;12.30;99.90;;;;;;7342009;32;20549;-62
2022/10/01 19:10:19;;;;;;;14.68;3.28;;;12.20;99.90;;;;;;7347075;32;20182;-66
2022/10/01 19:14:48;;;;;;;15.25;3.87;;;12.00;99.90;;;;;;7346309;32;20103;-63
2022/10/01 19:19:22;;;;;;;17.92;4.40;;;11.80;99.90;;;;;;7340794;32;20111;-62
2022/10/01 19:24:11;;;;;;;12.88;4.93;;;11.60;99.90;;;;;;7343661;32;20115;-62
2022/10/01 19:28:35;;;;;;;22.33;11.02;;;11.40;99.90;;;;;;7336552;32;20648;-64
2022/10/01 19:32:42;;;;;;;9.57;3.45;;;11.20;99.90;;;;;;7342185;32;22251;-63
2022/10/01 19:37:03;;;;;;;7.93;2.92;;;11.00;99.90;;;;;;7348140;32;20104;-63
2022/10/01 19:41:22;;;;;;;14.27;3.42;;;10.80;99.90;;;;;;7336466;32;20563;-65
2022/10/01 19:45:36;;;;;;;15.00;3.47;;;10.70;99.90;;;;;;7347918;32;20226;-62
2022/10/01 19:49:39;;;;;;;13.23;3.45;;;10.60;99.90;;;;;;7353822;32;20111;-63
2022/10/01 19:53:45;;;;;;;15.43;4.35;;;10.50;99.90;;;;;;7351487;32;20512;-62
2022/10/01 19:57:47;;;;;;;14.07;2.80;;;10.50;99.90;;;;;;7343000;32;20141;-62
2022/10/01 20:01:54;;;;;;;11.07;2.80;;;10.40;99.90;;;;;;7346823;32;20206;-62
2022/10/01 20:06:12;;;;;;;7.10;2.60;;;10.30;99.90;;;;;;7351722;32;20175;-61
2022/10/01 20:10:20;;;;;;;10.98;2.70;;;10.20;99.90;;;;;;7341135;32;20122;-64
2022/10/01 20:18:46;;;;;;;11.85;2.72;;;10.10;99.90;;;;;;7344133;32;20014;-63
2022/10/01 20:23:25;;;;;;;12.10;3.05;;;9.90;99.90;;;;;;7351701;32;20565;-63
2022/10/01 20:27:33;;;;;;;12.88;6.70;;;9.90;99.90;;;;;;7345908;32;20536;-62
2022/10/01 20:31:55;;;;;;;17.87;5.03;;;9.80;99.90;;;;;;7347451;32;20123;-62
2022/10/01 20:36:09;;;;;;;11.18;4.10;;;9.70;99.90;;;;;;7356230;32;20271;-62
2022/10/01 20:40:24;;;;;;;14.23;3.00;;;9.60;99.90;;;;;;7346515;32;20095;-63
2022/10/01 20:44:33;;;;;;;9.45;3.22;;;9.60;99.90;;;;;;7347337;32;20574;-65
2022/10/01 20:48:38;;;;;;;12.65;3.35;;;9.50;99.90;;;;;;7347638;32;20199;-62
2022/10/01 20:53:02;;;;;;;10.38;2.87;;;9.50;99.90;;;;;;7349704;32;20206;-62
2022/10/01 20:57:16;;;;;;;9.68;2.90;;;9.40;99.90;;;;;;7350626;32;20100;-63
2022/10/01 21:01:24;;;;;;;9.15;2.80;;;9.40;99.90;;;;;;7344015;32;20108;-63
2022/10/01 21:05:33;;;;;;;16.40;7.00;;;9.30;99.90;;;;;;7345446;32;20213;-62
2022/10/01 21:09:44;;;;;;;19.65;11.35;;;9.20;99.90;;;;;;7345039;32;20467;-62
2022/10/01 21:14:05;;;;;;;19.95;12.13;;;9.10;99.90;;;;;;7345682;32;20103;-62
2022/10/01 21:18:15;;;;;;;12.23;5.18;;;9.10;99.90;;;;;;7348931;32;20463;-62
2022/10/01 21:22:26;;;;;;;14.13;2.70;;;9.00;99.90;;;;;;7345207;32;20770;-62
2022/10/01 21:26:40;;;;;;;7.97;2.47;;;9.00;99.90;;;;;;7344606;32;20099;-63
2022/10/01 21:30:51;;;;;;;11.20;2.60;;;9.00;99.90;;;;;;7338029;32;20103;-62
2022/10/01 21:35:13;;;;;;;7.50;2.62;;;9.10;99.90;;;;;;7346705;32;20134;-62
2022/10/01 21:39:50;;;;;;;6.30;2.30;;;9.10;99.90;;;;;;7346927;32;20126;-62
2022/10/01 21:44:04;;;;;;;9.87;2.73;;;9.20;99.90;;;;;;7336065;32;20222;-63
2022/10/01 21:48:56;;;;;;;9.27;2.80;;;9.20;99.90;;;;;;7349060;32;20127;-62
2022/10/01 21:53:10;;;;;;;15.95;3.62;;;9.40;99.90;;;;;;7344458;32;20099;-63
2022/10/01 21:57:27;;;;;;;9.50;2.60;;;9.50;99.90;;;;;;7342884;32;20133;-63
2022/10/01 22:01:53;;;;;;;15.70;3.33;;;9.60;99.90;;;;;;7344190;32;20115;-62